KPDK/PDK METAR and TAF weather

Enter ICAO airport designator
Station Type Date Time Source
KPDK METAR 2020/06/05 23:53 UTC NOAA

KPDK 052353Z 22006KT 10SM CLR 24/21 A2997 RMK AO2 SLP134 T02440206 10272 20244 53006


Station Type Date Time Source
KPDK Decoded METAR 2020/06/05 23:53 UTC NOAA

ATLANTA DE KALB-PEACHTREE, GA, United States (KPDK) 33-53N 084-18W 302M
Jun 05, 2020 - 07:53 PM EDT / 2020.06.05 2353 UTC
Wind: from the SW (220 degrees) at 7 MPH (6 KT):0
Visibility: 10 mile(s):0
Sky conditions: clear
Temperature: 75.9 F (24.4 C)
Dew Point: 69.1 F (20.6 C)
Relative Humidity: 79%
Pressure (altimeter): 29.97 in. Hg (1014 hPa)
Pressure tendency: 0.02 inches (0.6 hPa) higher than three hours ago
ob: KPDK 052353Z 22006KT 10SM CLR 24/21 A2997 RMK AO2 SLP134 T02440206 10272 20244 53006
cycle: 0

Station Type Date Time Source
KPDK TAF 2020/06/05 18:22 UTC NOAA

TAF KPDK 051720Z 0518/0618 27008KT P6SM VCSH BKN045 BKN250
TEMPO 0519/0523 VRB15G25KT 4SM TSRA BKN030CB
FM060200 25005KT P6SM FEW040 SCT250
FM061000 00000KT P6SM SCT015 SCT050
FM061500 VRB03KT P6SM SCT035

Example: see airport list